createdAt,value
2018-07-13T00:00:37.020Z,94792.77
2018-07-13T00:03:07.026Z,94797.96
2018-07-13T00:05:36.819Z,94792.08
2018-07-13T00:08:06.667Z,94792.89
2018-07-13T00:10:36.729Z,94791.38
2018-07-13T00:13:06.509Z,94793.02
2018-07-13T00:15:36.282Z,94791.32
2018-07-13T00:18:05.847Z,94790.47
2018-07-13T00:20:35.727Z,94789.94
2018-07-13T00:23:05.390Z,94788.76
2018-07-13T00:25:35.398Z,94788.45
2018-07-13T00:28:05.137Z,94788.91
2018-07-13T00:30:34.775Z,94792.27
2018-07-13T00:33:04.655Z,94796.59
2018-07-13T00:35:34.255Z,94800.36
2018-07-13T00:38:03.811Z,94793.58
2018-07-13T00:40:33.723Z,94790.59
2018-07-13T00:43:03.571Z,94792.73
2018-07-13T00:45:33.144Z,94790.23
2018-07-13T00:48:02.732Z,94793.55
2018-07-13T00:50:32.567Z,94791.30
2018-07-13T00:53:02.231Z,94793.49
2018-07-13T00:55:32.090Z,94798.22
2018-07-13T00:58:01.902Z,94792.41
2018-07-13T01:00:32.968Z,94791.92
2018-07-13T01:03:04.326Z,94797.86
2018-07-13T01:05:33.912Z,94797.13
2018-07-13T01:08:03.564Z,94795.77
2018-07-13T01:10:33.723Z,94797.30
2018-07-13T01:13:03.639Z,94787.64
2018-07-13T01:15:33.223Z,94784.73
2018-07-13T01:18:02.817Z,94787.55
2018-07-13T01:20:32.346Z,94787.41
2018-07-13T01:23:02.019Z,94789.10
2018-07-13T01:25:31.944Z,94795.59
2018-07-13T01:28:01.799Z,94793.58
2018-07-13T01:30:31.577Z,94789.47
2018-07-13T01:33:01.356Z,94790.51
2018-07-13T01:35:31.007Z,94797.89
2018-07-13T01:38:00.657Z,94792.30
2018-07-13T01:40:30.351Z,94788.45
2018-07-13T01:42:59.864Z,94793.52
2018-07-13T01:45:29.484Z,94790.11
2018-07-13T01:47:59.391Z,94789.40
2018-07-13T01:50:28.912Z,94788.98
2018-07-13T01:52:58.611Z,94796.67
2018-07-13T01:55:28.381Z,94793.67
2018-07-13T01:57:58.024Z,94795.72
2018-07-13T02:00:27.704Z,94797.88
2018-07-13T02:02:57.344Z,94792.88
2018-07-13T02:05:27.124Z,94795.00
2018-07-13T02:07:56.924Z,94796.16
2018-07-13T02:10:26.443Z,94802.70
2018-07-13T02:12:56.503Z,94806.78
2018-07-13T02:15:26.056Z,94806.09
2018-07-13T02:17:55.562Z,94803.16
2018-07-13T02:20:25.197Z,94807.34
2018-07-13T02:22:54.835Z,94804.89
2018-07-13T02:25:24.407Z,94807.77
2018-07-13T02:27:54.338Z,94807.86
2018-07-13T02:30:24.088Z,94814.58
2018-07-13T02:32:53.807Z,94808.06
2018-07-13T02:35:23.445Z,94808.45
2018-07-13T02:37:53.118Z,94806.02
2018-07-13T02:40:23.140Z,94813.19
2018-07-13T02:42:52.921Z,94813.34
2018-07-13T02:45:22.615Z,94746.97
2018-07-13T02:47:52.335Z,94801.91
2018-07-13T02:50:22.056Z,94801.64
2018-07-13T02:52:51.816Z,94803.17
2018-07-13T02:55:21.544Z,94807.33
2018-07-13T02:57:51.247Z,94803.05
2018-07-13T03:00:21.152Z,94801.70
2018-07-13T03:02:51.378Z,94803.86
2018-07-13T03:05:20.913Z,94798.58
2018-07-13T03:07:50.514Z,94801.97
2018-07-13T03:10:20.476Z,94803.70
2018-07-13T03:12:50.154Z,94800.04
2018-07-13T03:15:19.894Z,94791.39
2018-07-13T03:17:49.739Z,94801.53
2018-07-13T03:20:19.414Z,94805.45
2018-07-13T03:22:48.992Z,94806.87
2018-07-13T03:25:18.600Z,94808.50
2018-07-13T03:27:48.385Z,94809.45
2018-07-13T03:30:18.171Z,94805.61
2018-07-13T03:32:47.808Z,94812.03
2018-07-13T03:35:17.598Z,94814.65
2018-07-13T03:37:47.771Z,94810.47
2018-07-13T03:40:17.711Z,94810.75
2018-07-13T03:42:47.806Z,94807.95
2018-07-13T03:45:17.623Z,94816.26
2018-07-13T03:47:47.382Z,94811.93
2018-07-13T03:50:17.122Z,94810.98
2018-07-13T03:52:46.687Z,94813.06
2018-07-13T03:55:16.502Z,94818.27
2018-07-13T03:57:46.315Z,94817.17
2018-07-13T04:00:15.875Z,94818.20
2018-07-13T04:02:45.687Z,94818.33
2018-07-13T04:05:15.268Z,94819.88
2018-07-13T04:07:45.039Z,94825.11
2018-07-13T04:10:15.050Z,94824.77
2018-07-13T04:12:44.780Z,94825.39
2018-07-13T04:15:14.547Z,94822.77
2018-07-13T04:17:44.094Z,94823.31
2018-07-13T04:20:13.848Z,94817.75
2018-07-13T04:22:43.578Z,94815.43
2018-07-13T04:25:13.431Z,94814.57
2018-07-13T04:27:43.430Z,94813.97
2018-07-13T04:30:13.180Z,94812.57
2018-07-13T04:32:42.800Z,94814.22
2018-07-13T04:35:12.474Z,94815.82
2018-07-13T04:37:42.199Z,94811.17
2018-07-13T04:40:12.319Z,94805.13
2018-07-13T04:42:42.040Z,94808.70
2018-07-13T04:45:12.183Z,94809.23
2018-07-13T04:47:42.107Z,94814.00
2018-07-13T04:50:12.078Z,94813.30
2018-07-13T04:52:42.098Z,94807.67
2018-07-13T04:55:11.750Z,94806.89
2018-07-13T04:57:41.899Z,94799.52
2018-07-13T05:00:11.914Z,94799.14
2018-07-13T05:02:41.799Z,94800.28
2018-07-13T05:05:11.470Z,94803.36
2018-07-13T05:07:41.173Z,94802.27
2018-07-13T05:10:10.901Z,94805.24
2018-07-13T05:12:40.751Z,94814.09
2018-07-13T05:15:10.791Z,94814.04
2018-07-13T05:17:40.855Z,94814.39
2018-07-13T05:20:11.075Z,94816.25
2018-07-13T05:22:41.166Z,94816.22
2018-07-13T05:25:10.840Z,94815.38
2018-07-13T05:27:41.076Z,94819.33
2018-07-13T05:30:10.934Z,94819.19
2018-07-13T05:32:40.813Z,94816.92
2018-07-13T05:35:10.775Z,94825.95
2018-07-13T05:37:40.501Z,94819.60
2018-07-13T05:40:10.267Z,94819.51
2018-07-13T05:42:40.011Z,94819.12
2018-07-13T05:45:09.918Z,94819.33
2018-07-13T05:47:39.901Z,94823.98
2018-07-13T05:50:09.837Z,94822.27
2018-07-13T05:52:39.867Z,94818.92
2018-07-13T05:55:10.007Z,94823.53
2018-07-13T05:57:39.851Z,94824.84
2018-07-13T06:00:09.791Z,94821.20
2018-07-13T06:02:39.783Z,94826.59
2018-07-13T06:05:09.575Z,94827.81
2018-07-13T06:07:39.578Z,94829.63
2018-07-13T06:10:09.573Z,94826.97
2018-07-13T06:12:39.283Z,94826.20
2018-07-13T06:15:08.933Z,94827.71
2018-07-13T06:17:38.607Z,94822.58
2018-07-13T06:20:09.866Z,94831.06
2018-07-13T06:22:40.054Z,94829.55
2018-07-13T06:25:10.530Z,94824.63
2018-07-13T06:27:40.703Z,94831.59
2018-07-13T06:30:10.539Z,94827.41
2018-07-13T06:32:40.650Z,94827.84
2018-07-13T06:35:10.342Z,94816.07
2018-07-13T06:37:40.319Z,94820.67
2018-07-13T06:40:10.454Z,94813.54
2018-07-13T06:42:40.242Z,94821.46
2018-07-13T06:45:10.623Z,94818.34
2018-07-13T06:47:40.314Z,94816.98
2018-07-13T06:50:10.087Z,94813.77
2018-07-13T06:52:39.848Z,94821.95
2018-07-13T06:55:09.510Z,94817.49
2018-07-13T06:57:50.253Z,94823.44
2018-07-13T07:01:14.512Z,94820.57
2018-07-13T07:04:54.210Z,94826.80
2018-07-13T07:07:24.754Z,94824.09
2018-07-13T07:09:56.403Z,94831.43
2018-07-13T07:14:34.444Z,94830.30
2018-07-13T07:17:04.231Z,94829.79
2018-07-13T07:19:33.821Z,94830.25
2018-07-13T07:22:03.299Z,94829.65
2018-07-13T07:24:33.050Z,94814.34
2018-07-13T07:27:03.044Z,94825.39
2018-07-13T07:29:32.945Z,94816.66
2018-07-13T07:32:02.720Z,94820.73
2018-07-13T07:34:32.547Z,94821.72
2018-07-13T07:37:02.642Z,94816.77
2018-07-13T07:39:32.595Z,94818.81
2018-07-13T07:42:02.534Z,94821.09
2018-07-13T07:44:32.419Z,94818.07
2018-07-13T07:47:02.026Z,94817.91
2018-07-13T07:49:31.940Z,94820.11
2018-07-13T07:52:01.521Z,94822.08
2018-07-13T07:54:31.252Z,94813.91
2018-07-13T07:57:00.845Z,94813.83
2018-07-13T07:59:30.823Z,94815.36
2018-07-13T08:02:00.962Z,94816.38
2018-07-13T08:04:30.735Z,94820.75
2018-07-13T08:07:00.972Z,94822.94
2018-07-13T08:09:30.623Z,94818.95
2018-07-13T08:12:00.814Z,94832.53
2018-07-13T08:14:30.606Z,94829.73
2018-07-13T08:17:00.582Z,94820.05
2018-07-13T08:19:30.439Z,94824.72
2018-07-13T08:22:07.946Z,94823.32
2018-07-13T08:24:37.818Z,94826.19
2018-07-13T08:27:08.408Z,94824.63
2018-07-13T08:29:40.810Z,94818.15
2018-07-13T08:32:10.475Z,94806.78
2018-07-13T08:34:40.322Z,94809.80
2018-07-13T08:37:09.999Z,94811.25
2018-07-13T08:39:39.807Z,94821.53
2018-07-13T08:42:09.532Z,94818.20
2018-07-13T08:44:39.566Z,94817.42
2018-07-13T08:47:09.372Z,94820.33
2018-07-13T08:49:39.150Z,94819.94
2018-07-13T08:52:09.048Z,94814.92
2018-07-13T08:54:38.877Z,94813.68
2018-07-13T08:57:08.808Z,94813.20
2018-07-13T08:59:38.581Z,94818.42
2018-07-13T09:02:08.179Z,94819.05
2018-07-13T09:04:37.995Z,94822.98
2018-07-13T09:07:07.544Z,94817.71
2018-07-13T09:09:37.175Z,94817.89
2018-07-13T09:12:07.098Z,94818.66
2018-07-13T09:14:37.302Z,94814.98
2018-07-13T09:17:07.328Z,94809.10
2018-07-13T09:19:37.032Z,94816.34
2018-07-13T09:22:07.023Z,94807.50
2018-07-13T09:24:36.715Z,94801.28
2018-07-13T09:27:06.647Z,94757.14
2018-07-13T09:29:36.819Z,94796.94
2018-07-13T09:32:06.588Z,94790.73
2018-07-13T09:34:36.250Z,94785.05
2018-07-13T09:37:06.063Z,94781.32
2018-07-13T09:39:35.958Z,94781.64
2018-07-13T09:42:05.872Z,94783.70
2018-07-13T09:44:35.614Z,94785.20
2018-07-13T09:47:05.635Z,94782.03
2018-07-13T09:49:35.597Z,94781.92
2018-07-13T09:52:05.299Z,94781.38
2018-07-13T09:54:35.254Z,94775.84
2018-07-13T09:57:05.183Z,94775.94
2018-07-13T09:59:35.011Z,94765.98
2018-07-13T10:02:04.897Z,94766.25
2018-07-13T10:04:34.739Z,94764.05
2018-07-13T10:07:04.395Z,94762.95
2018-07-13T10:09:34.106Z,94758.52
2018-07-13T10:12:03.966Z,94754.39
2018-07-13T10:14:33.878Z,94753.52
2018-07-13T10:17:03.882Z,94753.42
2018-07-13T10:19:33.922Z,94754.31
2018-07-13T10:22:04.039Z,94754.28
2018-07-13T10:24:35.321Z,94749.08
2018-07-13T10:27:05.330Z,94756.05
2018-07-13T10:29:38.011Z,94747.97
2018-07-13T10:32:07.977Z,94738.98
2018-07-13T10:34:37.811Z,94741.30
2018-07-13T10:37:07.588Z,94735.56
2018-07-13T10:39:37.218Z,94734.61
2018-07-13T10:42:06.842Z,94738.44
2018-07-13T10:44:36.852Z,94748.77
2018-07-13T10:47:06.874Z,94742.41
2018-07-13T10:49:36.552Z,94750.37
2018-07-13T10:52:06.376Z,94747.47
2018-07-13T10:54:36.127Z,94743.52
2018-07-13T10:57:06.131Z,94736.92
2018-07-13T10:59:35.679Z,94746.20
2018-07-13T11:02:05.845Z,94746.91
2018-07-13T11:04:35.855Z,94754.23
2018-07-13T11:07:05.802Z,94744.55
2018-07-13T11:09:35.365Z,94743.06
2018-07-13T11:12:05.065Z,94753.31
2018-07-13T11:14:34.735Z,94755.01
2018-07-13T11:17:04.377Z,94755.53
2018-07-13T11:19:34.167Z,94744.13
2018-07-13T11:22:04.082Z,94743.91
2018-07-13T11:24:33.934Z,94738.93
2018-07-13T11:27:04.164Z,94743.11
2018-07-13T11:29:34.112Z,94744.80
2018-07-13T11:32:03.798Z,94742.34
2018-07-13T11:34:33.711Z,94738.99
2018-07-13T11:37:03.912Z,94733.99
2018-07-13T11:39:33.766Z,94729.20
2018-07-13T11:42:04.176Z,94734.61
2018-07-13T11:44:33.936Z,94739.41
2018-07-13T11:47:03.578Z,94744.20
2018-07-13T11:49:33.769Z,94744.81
2018-07-13T11:52:04.396Z,94740.62
2018-07-13T11:54:34.131Z,94741.41
2018-07-13T11:57:04.223Z,94742.94
2018-07-13T11:59:34.212Z,94741.09
2018-07-13T12:02:03.881Z,94738.94
2018-07-13T12:04:33.599Z,94741.64
2018-07-13T12:07:03.442Z,94739.34
2018-07-13T12:09:33.365Z,94737.45
2018-07-13T12:12:03.493Z,94739.61
2018-07-13T12:14:33.080Z,94728.81
2018-07-13T12:17:02.779Z,94730.48
2018-07-13T12:19:32.376Z,94740.45
2018-07-13T12:22:02.597Z,94735.48
2018-07-13T12:24:32.543Z,94745.83
2018-07-13T12:27:02.474Z,94750.45
2018-07-13T12:29:32.264Z,94745.44
2018-07-13T12:32:02.421Z,94756.05
2018-07-13T12:34:32.138Z,94753.25
2018-07-13T12:37:01.988Z,94748.89
2018-07-13T12:39:31.994Z,94748.09
2018-07-13T12:42:02.135Z,94751.36
2018-07-13T12:44:31.945Z,94746.98
2018-07-13T12:47:01.439Z,94755.28
2018-07-13T12:49:31.466Z,94752.91
2018-07-13T12:52:01.152Z,94753.49
2018-07-13T12:54:31.129Z,94750.75
2018-07-13T12:57:00.862Z,94746.99
2018-07-13T12:59:30.674Z,94748.61
2018-07-13T13:02:00.332Z,94752.08
2018-07-13T13:04:30.056Z,94752.16
2018-07-13T13:07:00.125Z,94739.08
2018-07-13T13:09:30.221Z,94729.78
2018-07-13T13:11:59.803Z,94725.73
2018-07-13T13:14:29.623Z,94727.34
2018-07-13T13:16:59.164Z,94724.18
2018-07-13T13:19:28.736Z,94725.73
2018-07-13T13:21:58.552Z,94710.06
2018-07-13T13:24:27.975Z,94701.41
2018-07-13T13:26:57.887Z,94691.74
2018-07-13T13:29:27.679Z,94687.91
2018-07-13T13:31:57.608Z,94695.31
2018-07-13T13:34:27.239Z,94689.54
2018-07-13T13:36:57.032Z,94686.91
2018-07-13T13:39:26.836Z,94677.12
2018-07-13T13:41:56.402Z,94685.36
2018-07-13T13:44:26.287Z,94691.33
2018-07-13T13:46:56.150Z,94705.44
2018-07-13T13:49:26.086Z,94715.06
2018-07-13T13:51:56.728Z,94713.29
2018-07-13T13:54:26.327Z,94712.25
2018-07-13T13:56:56.144Z,94716.33
2018-07-13T13:59:26.028Z,94720.06
2018-07-13T14:01:56.179Z,94721.80
2018-07-13T14:04:26.084Z,94717.96
2018-07-13T14:06:55.987Z,94717.57
2018-07-13T14:09:25.850Z,94716.79
2018-07-13T14:11:55.675Z,94719.50
2018-07-13T14:14:25.375Z,94726.06
2018-07-13T14:16:55.325Z,94733.84
2018-07-13T14:19:25.131Z,94738.48
2018-07-13T14:21:54.857Z,94731.44
2018-07-13T14:24:24.465Z,94723.22
2018-07-13T14:26:54.412Z,94717.44
2018-07-13T14:29:24.019Z,94718.81
2018-07-13T14:31:54.243Z,94713.25
2018-07-13T14:34:23.863Z,94713.75
2018-07-13T14:36:53.706Z,94710.47
2018-07-13T14:39:23.832Z,94711.85
2018-07-13T14:41:53.749Z,94710.67
2018-07-13T14:44:23.614Z,94708.12
2018-07-13T14:46:53.310Z,94708.69
2018-07-13T14:49:23.386Z,94697.13
2018-07-13T14:51:53.105Z,94700.86
2018-07-13T14:54:23.174Z,94705.29
2018-07-13T14:56:52.740Z,94697.42
2018-07-13T14:59:22.434Z,94694.19
2018-07-13T15:01:52.322Z,94689.31
2018-07-13T15:04:21.989Z,94688.27
2018-07-13T15:06:51.847Z,94686.85
2018-07-13T15:09:21.848Z,94682.60
2018-07-13T15:11:51.715Z,94684.12
2018-07-13T15:14:21.482Z,94678.83
2018-07-13T15:16:51.453Z,94680.51
2018-07-13T15:19:21.434Z,94685.12
2018-07-13T15:21:51.413Z,94692.31
2018-07-13T15:24:21.303Z,94689.73
2018-07-13T15:26:55.986Z,94696.14
2018-07-13T15:29:25.742Z,94695.06
2018-07-13T15:31:55.708Z,94693.05
2018-07-13T15:34:25.707Z,94701.33
2018-07-13T15:36:55.955Z,94695.72
2018-07-13T15:39:25.756Z,94695.37
2018-07-13T15:41:55.890Z,94703.62
2018-07-13T15:44:25.844Z,94700.70
2018-07-13T15:46:55.499Z,94701.41
2018-07-13T15:49:25.195Z,94697.30
2018-07-13T15:51:55.200Z,94697.42
2018-07-13T15:54:25.097Z,94710.35
2018-07-13T15:56:54.990Z,94703.63
2018-07-13T15:59:25.167Z,94704.20
2018-07-13T16:01:55.366Z,94697.43
2018-07-13T16:04:25.046Z,94699.87
2018-07-13T16:06:54.730Z,94695.63
2018-07-13T16:09:24.772Z,94702.83
2018-07-13T16:11:54.554Z,94699.52
2018-07-13T16:14:24.212Z,94695.63
2018-07-13T16:16:54.256Z,94687.86
2018-07-13T16:19:24.542Z,94695.80
2018-07-13T16:21:54.175Z,94689.70
2018-07-13T16:24:24.086Z,94695.97
2018-07-13T16:26:53.980Z,94694.38
2018-07-13T16:29:24.100Z,94692.56
2018-07-13T16:31:54.086Z,94683.27
2018-07-13T16:34:23.939Z,94692.00
2018-07-13T16:36:53.418Z,94690.87
2018-07-13T16:39:23.153Z,94688.84
2018-07-13T16:41:53.351Z,94691.06
2018-07-13T16:44:23.255Z,94686.47
2018-07-13T16:46:53.216Z,94695.38
2018-07-13T16:49:23.352Z,94692.88
2018-07-13T16:51:53.639Z,94690.76
2018-07-13T16:54:23.270Z,94695.50
2018-07-13T16:56:52.980Z,94692.55
2018-07-13T16:59:22.913Z,94690.84
2018-07-13T17:01:53.187Z,94693.44
2018-07-13T17:04:23.088Z,94697.50
2018-07-13T17:06:52.846Z,94700.05
2018-07-13T17:09:22.805Z,94696.59
2018-07-13T17:11:52.437Z,94699.52
2018-07-13T17:14:22.999Z,94699.43
2018-07-13T17:16:53.134Z,94704.58
2018-07-13T17:19:23.061Z,94706.81
2018-07-13T17:21:53.220Z,94713.93
2018-07-13T17:24:22.972Z,94714.13
2018-07-13T17:26:52.788Z,94715.41
2018-07-13T17:29:22.792Z,94712.84
2018-07-13T17:31:53.369Z,94720.83
2018-07-13T17:34:23.220Z,94727.45
2018-07-13T17:36:53.675Z,94723.12
2018-07-13T17:39:23.210Z,94720.44
2018-07-13T17:41:53.348Z,94727.48
2018-07-13T17:44:23.267Z,94733.73
2018-07-13T17:46:53.058Z,94732.08
2018-07-13T17:49:22.755Z,94729.05
2018-07-13T17:51:53.154Z,94731.92
2018-07-13T17:54:23.353Z,94729.08
2018-07-13T17:56:53.478Z,94744.91
2018-07-13T17:59:23.424Z,94741.87
2018-07-13T18:01:53.206Z,94743.36
2018-07-13T18:04:23.278Z,94752.23
2018-07-13T18:06:53.740Z,94757.70
2018-07-13T18:09:23.895Z,94752.85
2018-07-13T18:11:53.541Z,94770.81
2018-07-13T18:14:23.461Z,94760.92
2018-07-13T18:16:53.331Z,94764.09
2018-07-13T18:19:23.004Z,94763.41
2018-07-13T18:21:52.551Z,94762.63
2018-07-13T18:24:22.727Z,94768.97
2018-07-13T18:26:52.660Z,94777.24
2018-07-13T18:29:22.799Z,94777.30
2018-07-13T18:31:52.502Z,94776.48
2018-07-13T18:34:23.006Z,94787.53
2018-07-13T18:36:52.745Z,94788.42
2018-07-13T18:39:22.578Z,94798.98
2018-07-13T18:41:52.402Z,94801.78
2018-07-13T18:44:22.085Z,94807.55
2018-07-13T18:46:52.253Z,94810.16
2018-07-13T18:49:22.047Z,94807.56
2018-07-13T18:51:52.240Z,94812.26
2018-07-13T18:54:23.377Z,94813.95
2018-07-13T18:56:53.167Z,94817.87
2018-07-13T18:59:23.126Z,94813.38
2018-07-13T19:01:53.075Z,94812.43
2018-07-13T19:04:23.244Z,94812.20
2018-07-13T19:06:53.186Z,94817.05
2018-07-13T19:09:22.769Z,94820.26
2018-07-13T19:11:52.818Z,94820.94
2018-07-13T19:14:22.948Z,94823.31
2018-07-13T19:16:52.637Z,94820.98
2018-07-13T19:19:22.620Z,94822.15
2018-07-13T19:21:53.158Z,94820.33
2018-07-13T19:24:22.763Z,94815.19
2018-07-13T19:26:52.780Z,94816.33
2018-07-13T19:29:22.983Z,94812.09
2018-07-13T19:31:52.939Z,94816.51
2018-07-13T19:34:22.878Z,94816.81
2018-07-13T19:36:52.503Z,94818.72
2018-07-13T19:39:22.975Z,94816.28
2018-07-13T19:41:53.264Z,94820.84
2018-07-13T19:44:22.863Z,94823.09
2018-07-13T19:46:52.464Z,94826.16
2018-07-13T19:49:22.339Z,94830.02
2018-07-13T19:51:52.380Z,94828.69
2018-07-13T19:54:21.883Z,94821.05
2018-07-13T19:56:51.788Z,94826.70
2018-07-13T19:59:21.935Z,94830.39
2018-07-13T20:01:51.538Z,94827.15
2018-07-13T20:04:21.258Z,94822.80
2018-07-13T20:06:51.167Z,94824.17
2018-07-13T20:09:21.137Z,94820.81
2018-07-13T20:11:50.775Z,94830.69
2018-07-13T20:14:20.711Z,94832.99
2018-07-13T20:16:50.451Z,94834.90
2018-07-13T20:19:20.265Z,94834.31
2018-07-13T20:21:50.326Z,94837.33
2018-07-13T20:24:20.243Z,94832.61
2018-07-13T20:26:50.250Z,94827.23
2018-07-13T20:29:19.918Z,94822.42
2018-07-13T20:31:50.210Z,94829.85
2018-07-13T20:34:19.802Z,94823.85
2018-07-13T20:36:49.914Z,94822.81
2018-07-13T20:39:20.055Z,94828.03
2018-07-13T20:41:49.574Z,94829.85
2018-07-13T20:44:19.217Z,94834.13
2018-07-13T20:46:49.256Z,94834.85
2018-07-13T20:49:18.990Z,94831.84
2018-07-13T20:51:49.122Z,94841.42
2018-07-13T20:54:18.753Z,94846.20
2018-07-13T20:56:48.965Z,94841.67
2018-07-13T20:59:18.552Z,94847.23
2018-07-13T21:01:48.515Z,94841.42
2018-07-13T21:04:18.215Z,94846.61
2018-07-13T21:06:47.923Z,94842.05
2018-07-13T21:09:17.814Z,94845.53
2018-07-13T21:11:47.312Z,94841.42
2018-07-13T21:14:16.836Z,94842.09
2018-07-13T21:16:46.950Z,94849.17
2018-07-13T21:19:16.591Z,94848.97
2018-07-13T21:21:46.131Z,94848.72
2018-07-13T21:24:16.401Z,94851.45
2018-07-13T21:26:46.484Z,94856.21
2018-07-13T21:29:16.110Z,94852.80
2018-07-13T21:31:46.092Z,94857.77
2018-07-13T21:34:16.241Z,94856.64
2018-07-13T21:36:46.278Z,94849.53
2018-07-13T21:39:15.847Z,94852.38
2018-07-13T21:41:45.809Z,94850.20
2018-07-13T21:44:15.280Z,94847.02
2018-07-13T21:46:45.279Z,94852.05
2018-07-13T21:49:15.548Z,94846.85
2018-07-13T21:51:45.251Z,94841.27
2018-07-13T21:54:14.723Z,94837.39
2018-07-13T21:56:45.093Z,94831.17
2018-07-13T21:59:14.789Z,94834.23
2018-07-13T22:01:45.377Z,94842.41
2018-07-13T22:04:15.369Z,94840.69
2018-07-13T22:06:45.048Z,94839.30
2018-07-13T22:09:15.080Z,94835.56
2018-07-13T22:11:44.708Z,94839.37
2018-07-13T22:14:14.163Z,94839.51
2018-07-13T22:16:44.151Z,94842.33
2018-07-13T22:19:13.867Z,94846.27
2018-07-13T22:21:43.511Z,94837.71
2018-07-13T22:24:13.893Z,94840.08
2018-07-13T22:26:43.703Z,94842.68
2018-07-13T22:29:13.355Z,94844.14
2018-07-13T22:31:43.290Z,94848.56
2018-07-13T22:34:13.306Z,94844.19
2018-07-13T22:36:43.123Z,94852.49
2018-07-13T22:39:12.710Z,94847.73
2018-07-13T22:41:42.528Z,94850.61
2018-07-13T22:44:11.966Z,94841.16
2018-07-13T22:46:41.757Z,94837.87
2018-07-13T22:49:12.199Z,94825.31
2018-07-13T22:51:41.987Z,94838.11
2018-07-13T22:54:12.126Z,94835.06
2018-07-13T22:56:41.823Z,94857.61
2018-07-13T22:59:11.435Z,94850.33
2018-07-13T23:01:41.675Z,94847.05
2018-07-13T23:04:11.370Z,94842.55
2018-07-13T23:06:41.578Z,94841.05
2018-07-13T23:09:11.140Z,94835.45
2018-07-13T23:11:40.859Z,94836.72
2018-07-13T23:14:10.578Z,94841.27
2018-07-13T23:16:40.450Z,94840.02
2018-07-13T23:19:10.577Z,94837.50
2018-07-13T23:21:40.463Z,94839.41
2018-07-13T23:24:11.025Z,94840.12
2018-07-13T23:26:40.757Z,94845.12
2018-07-13T23:29:10.840Z,94840.16
2018-07-13T23:31:40.643Z,94837.43
2018-07-13T23:34:10.386Z,94834.81
2018-07-13T23:36:39.895Z,94841.77
2018-07-13T23:39:09.683Z,94846.91
2018-07-13T23:41:39.250Z,94843.90
2018-07-13T23:44:09.528Z,94845.78
2018-07-13T23:46:39.215Z,94842.30
2018-07-13T23:49:09.085Z,94852.25
2018-07-13T23:51:39.467Z,94847.42
2018-07-13T23:54:09.199Z,94842.84
2018-07-13T23:56:39.709Z,94847.98
2018-07-13T23:59:09.412Z,94843.25
